Manchester, Massachusetts
Current Conditions -  °F | °C
As of 9:53 PM on Monday 20 Oct 2014 (Local Time) from KBVY Reporting Station
Clear Clear  
Wind Chill: 46°   Ceiling: Unl
Heat Index: 46°   Visibility: 10mi
Dew Point: 35°   Wind: 3mph
Humidity: 66%   Direction: 190°S
Pressure: 30"   Gusts: NA
Location:  42.58°N, 70.77°W
Report Text: KBVY 210153Z AUTO 19003KT 10SM CLR 08/02 A3000 RMK AO2 SLP155 T00780017
Loading
Personal Weather Stations






























Interactive Weather Map
Tropical Storm Tracking
New forecast layout! Learn more

10-Day Weather Forecast

Advertisements
Track Severe Weather on mobile